Time,TemperatureF,DewpointF,PressureIn,WindDirection,WindDirectionDegrees,WindSpeedMPH,WindSpeedGustMPH,Humidity,HourlyPrecipIn,Conditions,Clouds,dailyrainin,SoftwareType,DateUTC
2013-05-11 00:01:00,72.5,63.7,29.92,ESE,111,2.3,2.3,74,0.00,CLR,,0.00,WeatherDisplay:10.37,2013-05-11 04:01:00,
2013-05-11 00:06:00,72.4,63.6,29.93,ENE,63,1.0,1.0,74,0.00,CLR,,0.00,WeatherDisplay:10.37,2013-05-11 04:06:00,
2013-05-11 00:11:00,72.3,63.5,29.93,ESE,117,2.3,2.3,74,0.00,CLR,,0.00,WeatherDisplay:10.37,2013-05-11 04:11:00,
2013-05-11 00:16:00,72.3,63.9,29.93,ENE,62,2.3,2.3,75,0.00,CLR,,0.00,WeatherDisplay:10.37,2013-05-11 04:16:00,
2013-05-11 00:21:00,72.3,63.5,29.93,SSW,201,3.5,3.5,74,0.00,CLR,,0.00,WeatherDisplay:10.37,2013-05-11 04:21:00,
2013-05-11 00:26:00,72.3,63.5,29.93,ESE,122,1.1,1.1,74,0.00,CLR,,0.00,WeatherDisplay:10.37,2013-05-11 04:26:00,
2013-05-11 00:31:00,72.3,63.5,29.93,WSW,248,2.3,2.3,74,0.00,CLR,,0.00,WeatherDisplay:10.37,2013-05-11 04:31:00,
2013-05-11 00:36:00,72.3,63.5,29.93,ESE,110,1.1,1.1,74,0.00,CLR,,0.00,WeatherDisplay:10.37,2013-05-11 04:36:00,
2013-05-11 00:41:00,72.3,63.5,29.92,East,101,1.1,1.1,74,0.00,CLR,,0.00,WeatherDisplay:10.37,2013-05-11 04:41:00,
2013-05-11 00:46:00,72.2,63.4,29.92,East,93,2.3,2.3,74,0.00,CLR,,0.00,WeatherDisplay:10.37,2013-05-11 04:46:00,
2013-05-11 00:51:00,72.2,63.4,29.92,NE,49,2.0,2.0,74,0.00,CLR,,0.00,WeatherDisplay:10.37,2013-05-11 04:51:00,
2013-05-11 00:56:00,72.1,63.4,29.92,ENE,64,4.6,4.6,74,0.00,CLR,,0.00,WeatherDisplay:10.37,2013-05-11 04:56:00,
2013-05-11 01:01:00,72.1,63.4,29.92,ENE,70,2.3,2.3,74,0.00,CLR,,0.00,WeatherDisplay:10.37,2013-05-11 05:01:00,
2013-05-11 01:06:00,72.1,63.4,29.92,SE,143,5.8,5.8,74,0.00,CLR,,0.00,WeatherDisplay:10.37,2013-05-11 05:06:00,
2013-05-11 01:11:00,72.1,63.4,29.92,ENE,71,1.1,1.1,74,0.00,CLR,,0.00,WeatherDisplay:10.37,2013-05-11 05:11:00,
2013-05-11 01:16:00,72.0,63.3,29.92,ENE,77,2.0,0.0,74,0.00,CLR,,0.00,WeatherDisplay:10.37,2013-05-11 05:16:00,
2013-05-11 01:21:00,72.0,63.3,29.92,ESE,103,1.1,1.1,74,0.00,CLR,,0.00,WeatherDisplay:10.37,2013-05-11 05:21:00,
2013-05-11 01:26:00,72.0,63.3,29.92,SSE,160,3.5,3.5,74,0.00,CLR,,0.00,WeatherDisplay:10.37,2013-05-11 05:26:00,
2013-05-11 01:31:00,72.2,63.1,29.92,ESE,115,4.6,4.6,73,0.00,CLR,,0.00,WeatherDisplay:10.37,2013-05-11 05:31:00,
2013-05-11 01:36:00,72.2,63.1,29.92,East,83,3.5,3.5,73,0.00,CLR,,0.00,WeatherDisplay:10.37,2013-05-11 05:36:00,
2013-05-11 01:41:00,72.4,62.9,29.92,ENE,75,3.5,3.5,72,0.00,CLR,,0.00,WeatherDisplay:10.37,2013-05-11 05:41:00,
2013-05-11 01:46:00,72.5,63.0,29.92,NE,47,1.1,1.1,72,0.00,CLR,,0.00,WeatherDisplay:10.37,2013-05-11 05:46:00,
2013-05-11 01:51:00,72.5,63.0,29.92,East,87,3.5,3.5,72,0.00,CLR,,0.00,WeatherDisplay:10.37,2013-05-11 05:51:00,
2013-05-11 01:56:00,72.6,62.7,29.92,ENE,77,5.8,5.8,71,0.00,CLR,,0.00,WeatherDisplay:10.37,2013-05-11 05:56:00,
2013-05-11 02:01:00,72.6,62.7,29.92,ESE,109,3.5,3.5,71,0.00,CLR,,0.00,WeatherDisplay:10.37,2013-05-11 06:01:00,
2013-05-11 02:06:00,72.6,62.7,29.92,East,84,6.0,6.0,71,0.00,CLR,,0.00,WeatherDisplay:10.37,2013-05-11 06:06:00,
2013-05-11 02:11:00,72.6,62.7,29.91,East,82,3.5,3.5,71,0.00,CLR,,0.00,WeatherDisplay:10.37,2013-05-11 06:11:00,
2013-05-11 02:16:00,72.5,62.6,29.92,ENE,75,2.3,2.3,71,0.00,CLR,,0.00,WeatherDisplay:10.37,2013-05-11 06:16:00,
2013-05-11 02:21:00,72.4,62.5,29.92,ESE,105,3.0,3.0,71,0.00,CLR,,0.00,WeatherDisplay:10.37,2013-05-11 06:21:00,
2013-05-11 02:26:00,72.3,62.4,29.91,SSE,147,2.3,2.3,71,0.00,CLR,,0.00,WeatherDisplay:10.37,2013-05-11 06:26:00,
2013-05-11 02:31:00,72.2,62.3,29.91,NW,321,2.3,2.3,71,0.00,CLR,,0.00,WeatherDisplay:10.37,2013-05-11 06:31:00,
2013-05-11 02:36:00,72.1,62.6,29.91,SSW,209,3.0,3.0,72,0.00,CLR,,0.00,WeatherDisplay:10.37,2013-05-11 06:36:00,
2013-05-11 02:41:00,72.1,62.2,29.91,WSW,253,2.3,2.3,71,0.00,CLR,,0.00,WeatherDisplay:10.37,2013-05-11 06:41:00,
2013-05-11 02:46:00,72.0,62.1,29.91,SE,146,1.1,1.1,71,0.00,CLR,,0.00,WeatherDisplay:10.37,2013-05-11 06:46:00,
2013-05-11 02:51:00,72.0,62.1,29.91,ENE,65,3.5,3.5,71,0.00,CLR,,0.00,WeatherDisplay:10.37,2013-05-11 06:51:00,
2013-05-11 02:56:00,71.9,62.4,29.90,ESE,116,1.1,0.0,72,0.00,CLR,,0.00,WeatherDisplay:10.37,2013-05-11 06:56:00,
2013-05-11 03:01:00,71.8,62.3,29.90,West,259,2.3,2.3,72,0.00,CLR,,0.00,WeatherDisplay:10.37,2013-05-11 07:01:00,
2013-05-11 03:06:00,71.7,62.2,29.90,East,85,3.5,3.5,72,0.00,CLR,,0.00,WeatherDisplay:10.37,2013-05-11 07:06:00,
2013-05-11 03:11:00,71.7,61.8,29.90,ENE,73,3.5,3.5,71,0.00,CLR,,0.00,WeatherDisplay:10.37,2013-05-11 07:11:00,
2013-05-11 03:16:00,71.6,61.7,29.90,East,99,2.3,2.3,71,0.00,CLR,,0.00,WeatherDisplay:10.37,2013-05-11 07:16:00,
2013-05-11 03:21:00,71.6,61.7,29.90,NE,43,2.3,2.3,71,0.00,CLR,,0.00,WeatherDisplay:10.37,2013-05-11 07:21:00,
2013-05-11 03:26:00,71.6,61.7,29.90,ESE,105,2.3,2.3,71,0.00,CLR,,0.00,WeatherDisplay:10.37,2013-05-11 07:26:00,
2013-05-11 03:31:00,71.6,61.7,29.90,ENE,73,2.3,2.3,71,0.00,CLR,,0.00,WeatherDisplay:10.37,2013-05-11 07:31:00,
2013-05-11 03:36:00,71.5,61.6,29.90,South,183,5.8,5.8,71,0.00,CLR,,0.00,WeatherDisplay:10.37,2013-05-11 07:36:00,
2013-05-11 03:41:00,71.5,61.2,29.90,ESE,108,4.6,4.6,70,0.00,CLR,,0.00,WeatherDisplay:10.37,2013-05-11 07:41:00,
2013-05-11 03:46:00,71.5,61.2,29.89,SSW,198,3.5,3.5,70,0.00,CLR,,0.00,WeatherDisplay:10.37,2013-05-11 07:46:00,
2013-05-11 03:51:00,71.5,61.2,29.89,SW,232,4.6,4.6,70,0.00,CLR,,0.00,WeatherDisplay:10.37,2013-05-11 07:51:00,
2013-05-11 03:56:00,71.5,60.8,29.89,ESE,122,3.5,3.5,69,0.00,CLR,,0.00,WeatherDisplay:10.37,2013-05-11 07:56:00,
2013-05-11 04:01:00,71.4,60.7,29.89,ESE,102,3.5,3.5,69,0.00,CLR,,0.00,WeatherDisplay:10.37,2013-05-11 08:01:00,
2013-05-11 04:06:00,71.4,60.7,29.89,East,80,3.5,3.5,69,0.00,CLR,,0.00,WeatherDisplay:10.37,2013-05-11 08:06:00,
2013-05-11 04:11:00,71.3,60.6,29.89,ENE,74,2.3,2.3,69,0.00,CLR,,0.00,WeatherDisplay:10.37,2013-05-11 08:11:00,
2013-05-11 04:16:00,71.2,60.5,29.89,SSW,203,2.3,2.3,69,0.00,CLR,,0.00,WeatherDisplay:10.37,2013-05-11 08:16:00,
2013-05-11 04:21:00,71.1,60.4,29.89,West,266,3.5,3.5,69,0.00,CLR,,0.00,WeatherDisplay:10.37,2013-05-11 08:21:00,
2013-05-11 04:26:00,71.0,60.3,29.89,NW,318,2.3,2.3,69,0.00,CLR,,0.00,WeatherDisplay:10.37,2013-05-11 08:26:00,
2013-05-11 04:31:00,70.8,60.1,29.89,East,90,3.5,3.5,69,0.00,CLR,,0.00,WeatherDisplay:10.37,2013-05-11 08:31:00,
2013-05-11 04:36:00,70.7,60.0,29.89,East,94,1.1,0.0,69,0.00,CLR,,0.00,WeatherDisplay:10.37,2013-05-11 08:36:00,
2013-05-11 04:41:00,70.6,59.9,29.89,ENE,73,3.5,3.5,69,0.00,CLR,,0.00,WeatherDisplay:10.37,2013-05-11 08:41:00,
2013-05-11 04:46:00,70.5,59.8,29.89,SE,136,3.5,3.5,69,0.00,CLR,,0.00,WeatherDisplay:10.37,2013-05-11 08:46:00,
2013-05-11 04:51:00,70.3,59.6,29.89,NNE,26,2.3,2.3,69,0.00,CLR,,0.00,WeatherDisplay:10.37,2013-05-11 08:51:00,
2013-05-11 04:56:00,70.2,59.6,29.89,NW,306,1.1,1.1,69,0.00,CLR,,0.00,WeatherDisplay:10.37,2013-05-11 08:56:00,
2013-05-11 05:01:00,70.1,59.5,29.89,NW,326,3.5,3.5,69,0.00,CLR,,0.00,WeatherDisplay:10.37,2013-05-11 09:01:00,
2013-05-11 05:06:00,70.1,59.5,29.89,NNW,335,1.1,2.6,69,0.00,CLR,,0.00,WeatherDisplay:10.37,2013-05-11 09:06:00,
2013-05-11 05:11:00,70.1,59.5,29.89,NNE,30,1.1,1.1,69,0.00,CLR,,0.00,WeatherDisplay:10.37,2013-05-11 09:11:00,
2013-05-11 05:16:00,70.0,59.4,29.89,SE,141,3.5,3.5,69,0.00,CLR,,0.00,WeatherDisplay:10.37,2013-05-11 09:16:00,
2013-05-11 05:21:00,70.0,59.4,29.89,ESE,122,3.5,3.5,69,0.00,CLR,,0.00,WeatherDisplay:10.37,2013-05-11 09:21:00,
2013-05-11 05:26:00,69.9,59.3,29.88,ENE,75,1.1,1.1,69,0.00,CLR,,0.00,WeatherDisplay:10.37,2013-05-11 09:26:00,
2013-05-11 05:31:00,69.8,59.2,29.88,WSW,242,5.8,5.8,69,0.00,CLR,,0.00,WeatherDisplay:10.37,2013-05-11 09:31:00,
2013-05-11 05:36:00,69.8,59.2,29.88,SSW,201,3.5,3.5,69,0.00,CLR,,0.00,WeatherDisplay:10.37,2013-05-11 09:36:00,
2013-05-11 05:41:00,69.7,59.5,29.88,SSW,194,3.5,3.5,70,0.00,CLR,,0.00,WeatherDisplay:10.37,2013-05-11 09:41:00,
2013-05-11 05:46:00,69.6,59.4,29.88,West,274,3.5,3.5,70,0.00,CLR,,0.00,WeatherDisplay:10.37,2013-05-11 09:46:00,
2013-05-11 05:51:00,69.6,59.4,29.89,NW,325,3.5,3.5,70,0.00,CLR,,0.00,WeatherDisplay:10.37,2013-05-11 09:51:00,
2013-05-11 05:56:00,69.5,59.3,29.88,North,349,2.3,2.3,70,0.00,CLR,,0.00,WeatherDisplay:10.37,2013-05-11 09:56:00,
2013-05-11 06:01:00,69.4,59.2,29.89,ESE,120,2.3,2.3,70,0.00,CLR,,0.00,WeatherDisplay:10.37,2013-05-11 10:01:00,
2013-05-11 06:06:00,69.2,59.4,29.89,ESE,108,3.5,3.5,71,0.00,CLR,,0.00,WeatherDisplay:10.37,2013-05-11 10:06:00,
2013-05-11 06:11:00,69.2,59.4,29.89,ESE,108,2.0,2.0,71,0.00,CLR,,0.00,WeatherDisplay:10.37,2013-05-11 10:11:00,
2013-05-11 06:16:00,69.1,59.3,29.89,NE,54,2.3,2.3,71,0.00,CLR,,0.00,WeatherDisplay:10.37,2013-05-11 10:16:00,
2013-05-11 06:21:00,69.0,59.2,29.89,NW,323,2.3,2.3,71,0.00,CLR,,0.00,WeatherDisplay:10.37,2013-05-11 10:21:00,
2013-05-11 06:26:00,68.9,59.1,29.89,SW,227,2.3,2.3,71,0.00,CLR,,0.00,WeatherDisplay:10.37,2013-05-11 10:26:00,
2013-05-11 06:31:00,68.9,59.5,29.89,NE,40,3.5,3.5,72,0.00,CLR,,0.00,WeatherDisplay:10.37,2013-05-11 10:31:00,
2013-05-11 06:36:00,68.8,59.4,29.89,NW,305,2.3,2.3,72,0.00,CLR,,0.00,WeatherDisplay:10.37,2013-05-11 10:36:00,
2013-05-11 06:41:00,68.8,59.4,29.89,SE,132,3.5,3.5,72,0.00,CLR,,0.00,WeatherDisplay:10.37,2013-05-11 10:41:00,
2013-05-11 06:46:00,68.8,59.4,29.89,SSW,194,3.5,3.5,72,0.00,CLR,,0.00,WeatherDisplay:10.37,2013-05-11 10:46:00,
2013-05-11 06:51:00,68.8,59.8,29.89,ESE,105,1.1,1.1,73,0.00,CLR,,0.00,WeatherDisplay:10.37,2013-05-11 10:51:00,
2013-05-11 06:56:00,68.7,59.7,29.89,NE,49,3.5,3.5,73,0.00,CLR,,0.00,WeatherDisplay:10.37,2013-05-11 10:56:00,
2013-05-11 07:01:00,68.8,59.8,29.90,SW,214,2.3,2.3,73,0.00,CLR,,0.00,WeatherDisplay:10.37,2013-05-11 11:01:00,
2013-05-11 07:06:00,68.8,60.2,29.89,ENE,67,4.0,4.0,74,0.00,CLR,,0.00,WeatherDisplay:10.37,2013-05-11 11:06:00,
2013-05-11 07:11:00,68.7,60.1,29.89,SW,236,2.3,2.3,74,0.00,CLR,,0.00,WeatherDisplay:10.37,2013-05-11 11:11:00,
2013-05-11 07:16:00,68.6,60.4,29.89,East,88,3.5,3.5,75,0.00,CLR,,0.00,WeatherDisplay:10.37,2013-05-11 11:16:00,
2013-05-11 07:21:00,68.5,60.6,29.89,East,91,3.0,3.0,76,0.00,CLR,,0.00,WeatherDisplay:10.37,2013-05-11 11:21:00,
2013-05-11 07:26:00,68.5,60.6,29.89,SE,143,2.3,2.5,76,0.00,CLR,,0.00,WeatherDisplay:10.37,2013-05-11 11:26:00,
2013-05-11 07:31:00,68.5,61.0,29.89,ESE,112,1.1,0.0,77,0.00,CLR,,0.00,WeatherDisplay:10.37,2013-05-11 11:31:00,
2013-05-11 07:36:00,68.6,61.1,29.89,WSW,243,3.0,3.0,77,0.00,CLR,,0.00,WeatherDisplay:10.37,2013-05-11 11:36:00,
2013-05-11 07:41:00,68.6,61.5,29.89,SW,218,3.5,3.5,78,0.00,CLR,,0.00,WeatherDisplay:10.37,2013-05-11 11:41:00,
2013-05-11 07:46:00,68.7,61.6,29.89,ENE,70,1.1,0.0,78,0.00,CLR,,0.00,WeatherDisplay:10.37,2013-05-11 11:46:00,
2013-05-11 07:51:00,69.0,61.9,29.89,ENE,74,1.1,1.1,78,0.00,CLR,,0.00,WeatherDisplay:10.37,2013-05-11 11:51:00,
2013-05-11 07:56:00,69.1,61.9,29.89,WSW,246,5.8,5.8,78,0.00,CLR,,0.00,WeatherDisplay:10.37,2013-05-11 11:56:00,
2013-05-11 08:01:00,69.2,62.0,29.88,SE,127,3.5,3.5,78,0.00,CLR,,0.00,WeatherDisplay:10.37,2013-05-11 12:01:00,
2013-05-11 08:06:00,69.2,62.0,29.88,West,281,5.8,5.8,78,0.00,CLR,,0.00,WeatherDisplay:10.37,2013-05-11 12:06:00,
2013-05-11 08:11:00,69.4,62.6,29.88,NNW,333,3.5,3.5,79,0.00,CLR,,0.00,WeatherDisplay:10.37,2013-05-11 12:11:00,
2013-05-11 08:16:00,69.9,62.7,29.88,SSW,212,5.8,5.8,78,0.00,CLR,,0.00,WeatherDisplay:10.37,2013-05-11 12:16:00,
2013-05-11 08:21:00,70.4,63.2,29.88,NW,314,3.5,3.5,78,0.00,CLR,,0.00,WeatherDisplay:10.37,2013-05-11 12:21:00,
2013-05-11 08:26:00,70.7,63.1,29.88,South,183,2.3,2.3,77,0.00,CLR,,0.00,WeatherDisplay:10.37,2013-05-11 12:26:00,
2013-05-11 08:31:00,71.0,63.4,29.89,SSE,165,4.0,4.0,77,0.00,CLR,,0.00,WeatherDisplay:10.37,2013-05-11 12:31:00,
2013-05-11 08:36:00,71.0,63.1,29.88,NNW,335,1.1,1.1,76,0.00,CLR,,0.00,WeatherDisplay:10.37,2013-05-11 12:36:00,
2013-05-11 08:41:00,71.2,63.2,29.88,SSW,196,5.8,5.8,76,0.00,CLR,,0.00,WeatherDisplay:10.37,2013-05-11 12:41:00,
2013-05-11 08:46:00,71.5,63.5,29.88,SSE,148,4.6,4.6,76,0.00,CLR,,0.00,WeatherDisplay:10.37,2013-05-11 12:46:00,
2013-05-11 08:51:00,71.8,63.8,29.88,West,266,3.5,3.5,76,0.00,CLR,,0.00,WeatherDisplay:10.37,2013-05-11 12:51:00,
2013-05-11 08:56:00,72.0,63.6,29.88,West,264,3.5,3.5,75,0.00,CLR,,0.00,WeatherDisplay:10.37,2013-05-11 12:56:00,
2013-05-11 09:01:00,72.0,63.3,29.88,ESE,106,5.8,5.8,74,0.00,CLR,,0.00,WeatherDisplay:10.37,2013-05-11 13:01:00,
2013-05-11 09:06:00,72.1,63.7,29.88,NE,41,6.9,6.9,75,0.00,CLR,,0.00,WeatherDisplay:10.37,2013-05-11 13:06:00,
2013-05-11 09:11:00,72.4,64.0,29.87,ENE,63,4.0,0.0,75,0.00,CLR,,0.00,WeatherDisplay:10.37,2013-05-11 13:11:00,
2013-05-11 09:16:00,73.0,63.8,29.87,NNW,340,3.5,3.5,73,0.00,CLR,,0.00,WeatherDisplay:10.37,2013-05-11 13:16:00,
2013-05-11 09:21:00,73.7,64.5,29.88,NNE,23,5.8,5.8,73,0.00,CLR,,0.00,WeatherDisplay:10.37,2013-05-11 13:21:00,
2013-05-11 09:26:00,74.2,63.8,29.88,SW,228,6.9,6.9,70,0.00,CLR,,0.00,WeatherDisplay:10.37,2013-05-11 13:26:00,
2013-05-11 09:31:00,74.4,64.0,29.88,East,84,3.0,3.0,70,0.00,CLR,,0.00,WeatherDisplay:10.37,2013-05-11 13:31:00,
2013-05-11 09:36:00,74.8,64.8,29.88,ENE,64,1.1,1.1,71,0.00,CLR,,0.00,WeatherDisplay:10.37,2013-05-11 13:36:00,
2013-05-11 09:41:00,75.1,64.2,29.88,ENE,74,3.5,3.5,69,0.00,CLR,,0.00,WeatherDisplay:10.37,2013-05-11 13:41:00,
2013-05-11 09:47:00,75.2,63.9,29.87,NNW,328,3.5,3.5,68,0.00,CLR,,0.00,WeatherDisplay:10.37,2013-05-11 13:47:00,
2013-05-11 09:52:00,75.5,63.8,29.87,NW,315,3.5,3.5,67,0.00,CLR,,0.00,WeatherDisplay:10.37,2013-05-11 13:52:00,
2013-05-11 09:57:00,75.8,64.1,29.87,ESE,105,2.3,2.3,67,0.00,CLR,,0.00,WeatherDisplay:10.37,2013-05-11 13:57:00,
2013-05-11 10:02:00,75.9,63.3,29.87,WSW,250,11.5,11.5,65,0.00,CLR,,0.00,WeatherDisplay:10.37,2013-05-11 14:02:00,
2013-05-11 10:07:00,76.2,63.6,29.87,SE,146,5.8,5.8,65,0.00,CLR,,0.00,WeatherDisplay:10.37,2013-05-11 14:07:00,
2013-05-11 10:12:00,76.6,64.4,29.87,NW,323,1.1,1.1,66,0.00,CLR,,0.00,WeatherDisplay:10.37,2013-05-11 14:12:00,
2013-05-11 10:17:00,76.8,62.8,29.87,NW,325,6.9,6.9,62,0.00,CLR,,0.00,WeatherDisplay:10.37,2013-05-11 14:17:00,
2013-05-11 10:22:00,77.2,64.1,29.87,West,281,6.9,6.9,64,0.00,CLR,,0.00,WeatherDisplay:10.37,2013-05-11 14:22:00,
2013-05-11 10:27:00,77.6,63.5,29.87,ESE,115,4.0,4.0,62,0.00,CLR,,0.00,WeatherDisplay:10.37,2013-05-11 14:27:00,
2013-05-11 10:32:00,77.7,63.6,29.86,SSE,166,3.5,3.5,62,0.00,CLR,,0.00,WeatherDisplay:10.37,2013-05-11 14:32:00,
2013-05-11 10:37:00,78.1,63.6,29.86,NE,36,4.6,4.6,61,0.00,CLR,,0.00,WeatherDisplay:10.37,2013-05-11 14:37:00,
2013-05-11 10:42:00,78.6,63.6,29.86,West,271,6.9,6.9,60,0.00,CLR,,0.00,WeatherDisplay:10.37,2013-05-11 14:42:00,
2013-05-11 10:47:00,78.8,63.7,29.86,ESE,120,3.5,3.5,60,0.00,CLR,,0.00,WeatherDisplay:10.37,2013-05-11 14:47:00,
2013-05-11 10:52:00,78.9,63.4,29.85,WNW,295,6.9,6.9,59,0.00,CLR,,0.00,WeatherDisplay:10.37,2013-05-11 14:52:00,
2013-05-11 10:57:00,79.3,64.2,29.86,NNE,22,5.0,5.0,60,0.00,CLR,,0.00,WeatherDisplay:10.37,2013-05-11 14:57:00,
2013-05-11 11:02:00,79.2,62.7,29.85,NE,44,5.8,5.8,57,0.00,CLR,,0.00,WeatherDisplay:10.37,2013-05-11 15:02:00,
2013-05-11 11:07:00,79.1,63.1,29.85,West,270,4.6,4.6,58,0.00,CLR,,0.00,WeatherDisplay:10.37,2013-05-11 15:07:00,
2013-05-11 11:12:00,79.6,64.5,29.85,NE,34,4.6,4.6,60,0.00,CLR,,0.00,WeatherDisplay:10.37,2013-05-11 15:12:00,
2013-05-11 11:17:00,79.7,63.1,29.86,WNW,293,6.9,6.9,57,0.00,CLR,,0.00,WeatherDisplay:10.37,2013-05-11 15:17:00,
2013-05-11 11:22:00,79.4,63.8,29.85,NNE,26,4.6,4.6,59,0.00,CLR,,0.00,WeatherDisplay:10.37,2013-05-11 15:22:00,
2013-05-11 11:27:00,79.8,63.2,29.85,WSW,257,7.0,7.0,57,0.00,CLR,,0.00,WeatherDisplay:10.37,2013-05-11 15:27:00,
2013-05-11 11:32:00,80.2,64.6,29.86,SSW,212,7.0,7.0,59,0.00,CLR,,0.00,WeatherDisplay:10.37,2013-05-11 15:32:00,
2013-05-11 11:37:00,80.7,64.5,29.86,NW,316,10.0,10.0,58,0.00,CLR,,0.00,WeatherDisplay:10.37,2013-05-11 15:37:00,
2013-05-11 11:42:00,81.2,63.5,29.85,ESE,122,6.0,6.0,55,0.00,CLR,,0.00,WeatherDisplay:10.37,2013-05-11 15:42:00,
2013-05-11 11:47:00,81.0,63.8,29.85,NE,53,4.6,4.6,56,0.00,CLR,,0.00,WeatherDisplay:10.37,2013-05-11 15:47:00,
2013-05-11 11:52:00,80.9,63.2,29.85,WSW,240,3.5,3.5,55,0.00,CLR,,0.00,WeatherDisplay:10.37,2013-05-11 15:52:00,
2013-05-11 11:57:00,81.3,64.1,29.85,SW,219,5.8,5.8,56,0.00,CLR,,0.00,WeatherDisplay:10.37,2013-05-11 15:57:00,
2013-05-11 12:02:00,81.4,63.2,29.85,West,275,12.7,12.7,54,0.00,CLR,,0.00,WeatherDisplay:10.37,2013-05-11 16:02:00,
2013-05-11 12:07:00,81.6,63.3,29.85,SSW,203,3.5,3.5,54,0.00,CLR,,0.00,WeatherDisplay:10.37,2013-05-11 16:07:00,
2013-05-11 12:12:00,81.9,63.1,29.84,SSE,156,5.8,5.8,53,0.00,CLR,,0.00,WeatherDisplay:10.37,2013-05-11 16:12:00,
2013-05-11 12:17:00,81.6,62.3,29.85,South,188,9.2,9.2,52,0.00,CLR,,0.00,WeatherDisplay:10.37,2013-05-11 16:17:00,
2013-05-11 12:22:00,81.7,62.9,29.84,NE,51,9.2,9.2,53,0.00,CLR,,0.00,WeatherDisplay:10.37,2013-05-11 16:22:00,
2013-05-11 12:27:00,81.4,63.2,29.84,SSE,160,9.2,9.2,54,0.00,CLR,,0.00,WeatherDisplay:10.37,2013-05-11 16:27:00,
2013-05-11 12:32:00,81.6,63.3,29.84,South,171,6.9,6.9,54,0.00,CLR,,0.00,WeatherDisplay:10.37,2013-05-11 16:32:00,
2013-05-11 12:37:00,81.7,62.9,29.84,SSW,207,4.6,4.6,53,0.00,CLR,,0.00,WeatherDisplay:10.37,2013-05-11 16:37:00,
2013-05-11 12:42:00,81.6,63.9,29.84,SW,225,2.3,2.3,55,0.00,CLR,,0.00,WeatherDisplay:10.37,2013-05-11 16:42:00,
2013-05-11 12:47:00,81.7,62.9,29.84,ENE,58,10.4,10.4,53,0.00,CLR,,0.00,WeatherDisplay:10.37,2013-05-11 16:47:00,
2013-05-11 12:52:00,81.1,62.9,29.84,SE,141,3.5,3.5,54,0.00,CLR,,0.00,WeatherDisplay:10.37,2013-05-11 16:52:00,
2013-05-11 12:57:00,80.8,62.6,29.83,WSW,243,4.6,4.6,54,0.00,CLR,,0.00,WeatherDisplay:10.37,2013-05-11 16:57:00,
2013-05-11 13:02:00,80.5,62.8,29.83,East,91,4.6,4.6,55,0.00,CLR,,0.00,WeatherDisplay:10.37,2013-05-11 17:02:00,
2013-05-11 13:07:00,80.5,62.8,29.83,West,277,9.2,9.2,55,0.00,CLR,,0.00,WeatherDisplay:10.37,2013-05-11 17:07:00,
2013-05-11 13:12:00,80.1,62.5,29.83,SW,224,4.6,4.6,55,0.00,CLR,,0.00,WeatherDisplay:10.37,2013-05-11 17:12:00,
2013-05-11 13:17:00,79.9,62.8,29.83,SSW,193,3.0,3.0,56,0.00,CLR,,0.00,WeatherDisplay:10.37,2013-05-11 17:17:00,
2013-05-11 13:22:00,80.3,62.7,29.82,SW,236,11.0,11.0,55,0.00,CLR,,0.00,WeatherDisplay:10.37,2013-05-11 17:22:00,
2013-05-11 13:27:00,80.2,63.1,29.82,WSW,243,2.3,2.3,56,0.00,CLR,,0.00,WeatherDisplay:10.37,2013-05-11 17:27:00,
2013-05-11 13:32:00,80.3,63.7,29.81,WSW,248,2.3,2.3,57,0.00,CLR,,0.00,WeatherDisplay:10.37,2013-05-11 17:32:00,
2013-05-11 13:37:00,80.8,63.6,29.81,NW,309,4.0,4.0,56,0.00,CLR,,0.00,WeatherDisplay:10.37,2013-05-11 17:37:00,
2013-05-11 13:42:00,80.2,62.0,29.81,SW,236,6.9,6.9,54,0.00,CLR,,0.00,WeatherDisplay:10.37,2013-05-11 17:42:00,
2013-05-11 13:47:00,79.7,62.6,29.81,ESE,102,4.6,4.6,56,0.00,CLR,,0.00,WeatherDisplay:10.37,2013-05-11 17:47:00,
2013-05-11 13:52:00,80.0,62.9,29.81,NE,43,5.8,5.8,56,0.00,CLR,,0.00,WeatherDisplay:10.37,2013-05-11 17:52:00,
2013-05-11 13:57:00,80.1,63.5,29.81,SSW,210,7.0,7.0,57,0.00,CLR,,0.00,WeatherDisplay:10.37,2013-05-11 17:57:00,
2013-05-11 14:02:00,80.6,64.0,29.80,SW,228,3.5,3.5,57,0.00,CLR,,0.00,WeatherDisplay:10.37,2013-05-11 18:02:00,
2013-05-11 14:07:00,81.5,64.3,29.80,NNE,32,5.0,5.0,56,0.00,CLR,,0.00,WeatherDisplay:10.37,2013-05-11 18:07:00,
2013-05-11 14:12:00,81.9,64.1,29.80,East,101,3.5,3.5,55,0.00,CLR,,0.00,WeatherDisplay:10.37,2013-05-11 18:12:00,
2013-05-11 14:17:00,82.6,63.7,29.80,SSE,153,4.0,4.0,53,0.00,CLR,,0.00,WeatherDisplay:10.37,2013-05-11 18:17:00,
2013-05-11 14:22:00,82.5,63.6,29.80,ENE,57,8.1,8.1,53,0.00,CLR,,0.00,WeatherDisplay:10.37,2013-05-11 18:22:00,
2013-05-11 14:27:00,82.6,63.7,29.80,ENE,77,4.6,4.6,53,0.00,CLR,,0.00,WeatherDisplay:10.37,2013-05-11 18:27:00,
2013-05-11 14:32:00,82.3,62.4,29.80,NW,321,12.7,12.7,51,0.00,CLR,,0.00,WeatherDisplay:10.37,2013-05-11 18:32:00,
2013-05-11 14:37:00,82.3,62.9,29.79,ESE,110,7.0,7.0,52,0.00,CLR,,0.00,WeatherDisplay:10.37,2013-05-11 18:37:00,
2013-05-11 14:42:00,82.3,62.9,29.80,SSE,161,6.9,6.9,52,0.00,CLR,,0.00,WeatherDisplay:10.37,2013-05-11 18:42:00,
2013-05-11 14:47:00,82.1,62.2,29.79,East,94,3.5,3.5,51,0.00,CLR,,0.00,WeatherDisplay:10.37,2013-05-11 18:47:00,
2013-05-11 14:52:00,81.9,63.1,29.79,SE,143,2.3,2.3,53,0.00,CLR,,0.00,WeatherDisplay:10.37,2013-05-11 18:52:00,
2013-05-11 14:57:00,81.8,62.5,29.79,NNW,342,6.9,6.9,52,0.00,CLR,,0.00,WeatherDisplay:10.37,2013-05-11 18:57:00,
2013-05-11 15:02:00,82.0,63.2,29.78,ENE,77,3.5,3.5,53,0.00,CLR,,0.00,WeatherDisplay:10.37,2013-05-11 19:02:00,
2013-05-11 15:07:00,82.4,63.0,29.79,NW,309,7.0,7.0,52,0.00,CLR,,0.00,WeatherDisplay:10.37,2013-05-11 19:07:00,
2013-05-11 15:12:00,82.4,62.5,29.79,NW,323,5.0,5.0,51,0.00,CLR,,0.00,WeatherDisplay:10.37,2013-05-11 19:12:00,
2013-05-11 15:17:00,82.3,62.9,29.78,SE,125,5.8,5.8,52,0.00,CLR,,0.00,WeatherDisplay:10.37,2013-05-11 19:17:00,
2013-05-11 15:22:00,82.4,63.0,29.78,NNW,341,8.1,8.1,52,0.00,CLR,,0.00,WeatherDisplay:10.37,2013-05-11 19:22:00,
2013-05-11 15:27:00,82.2,62.3,29.78,SSW,193,9.2,9.2,51,0.00,CLR,,0.00,WeatherDisplay:10.37,2013-05-11 19:27:00,
2013-05-11 15:32:00,82.4,62.5,29.77,NE,51,3.5,3.5,51,0.00,CLR,,0.00,WeatherDisplay:10.37,2013-05-11 19:32:00,
2013-05-11 15:37:00,82.7,62.7,29.77,WSW,239,4.6,4.6,51,0.00,CLR,,0.00,WeatherDisplay:10.37,2013-05-11 19:37:00,
2013-05-11 15:42:00,82.8,62.8,29.77,West,278,10.4,10.4,51,0.00,CLR,,0.00,WeatherDisplay:10.37,2013-05-11 19:42:00,
2013-05-11 15:47:00,82.6,62.6,29.77,SSE,162,3.5,3.5,51,0.00,CLR,,0.00,WeatherDisplay:10.37,2013-05-11 19:47:00,
2013-05-11 15:52:00,83.0,63.0,29.77,NW,321,4.0,4.0,51,0.00,CLR,,0.00,WeatherDisplay:10.37,2013-05-11 19:52:00,
2013-05-11 15:57:00,83.1,63.1,29.76,South,174,3.5,3.5,51,0.00,CLR,,0.00,WeatherDisplay:10.37,2013-05-11 19:57:00,
2013-05-11 16:02:00,82.9,62.9,29.76,West,259,6.9,6.9,51,0.00,CLR,,0.00,WeatherDisplay:10.37,2013-05-11 20:02:00,
2013-05-11 16:07:00,82.2,61.7,29.76,West,259,5.8,5.8,50,0.00,CLR,,0.00,WeatherDisplay:10.37,2013-05-11 20:07:00,
2013-05-11 16:12:00,81.6,61.7,29.76,East,99,3.5,3.5,51,0.00,CLR,,0.00,WeatherDisplay:10.37,2013-05-11 20:12:00,
2013-05-11 16:17:00,81.4,62.1,29.77,South,190,2.3,0.0,52,0.00,CLR,,0.00,WeatherDisplay:10.37,2013-05-11 20:17:00,
2013-05-11 16:22:00,81.1,62.9,29.77,West,264,3.5,3.6,54,0.00,CLR,,0.00,WeatherDisplay:10.37,2013-05-11 20:22:00,
2013-05-11 16:27:00,79.6,63.5,29.77,SE,134,1.1,1.1,58,0.00,CLR,,0.00,WeatherDisplay:10.37,2013-05-11 20:27:00,
2013-05-11 16:32:00,78.3,63.7,29.78,NNE,30,1.1,0.0,61,0.00,CLR,,0.00,WeatherDisplay:10.37,2013-05-11 20:32:00,
2013-05-11 16:37:00,77.2,64.1,29.78,NW,305,1.1,1.1,64,0.00,CLR,,0.00,WeatherDisplay:10.37,2013-05-11 20:37:00,
2013-05-11 16:42:00,76.4,64.2,29.77,South,182,1.1,0.0,66,0.00,CLR,,0.00,WeatherDisplay:10.37,2013-05-11 20:42:00,
2013-05-11 16:47:00,75.5,64.6,29.77,NW,308,1.1,0.0,69,0.00,CLR,,0.00,WeatherDisplay:10.37,2013-05-11 20:47:00,
2013-05-11 16:52:00,74.3,64.3,29.77,WNW,293,0.0,0.0,71,0.00,CLR,,0.00,WeatherDisplay:10.37,2013-05-11 20:52:00,
2013-05-11 16:57:00,73.3,64.1,29.78,West,262,1.0,0.0,73,0.00,CLR,,0.00,WeatherDisplay:10.37,2013-05-11 20:57:00,
2013-05-11 17:02:00,72.5,64.5,29.79,WSW,257,1.1,0.0,76,0.00,CLR,,0.00,WeatherDisplay:10.37,2013-05-11 21:02:00,
2013-05-11 17:07:00,71.7,65.2,29.79,North,11,2.0,2.0,80,0.02,RA,,0.02,WeatherDisplay:10.37,2013-05-11 21:07:00,
2013-05-11 17:12:00,70.3,65.2,29.80,NNW,346,1.1,1.1,84,0.06,RA,,0.06,WeatherDisplay:10.37,2013-05-11 21:12:00,
2013-05-11 17:17:00,69.4,65.4,29.80,SE,133,3.5,3.5,87,0.08,RA,,0.08,WeatherDisplay:10.37,2013-05-11 21:17:00,
2013-05-11 17:22:00,68.9,65.2,29.80,SW,232,4.6,4.6,88,0.11,RA,,0.13,WeatherDisplay:10.37,2013-05-11 21:22:00,
2013-05-11 17:27:00,68.2,64.8,29.80,WNW,283,3.5,3.5,89,0.21,RA,,0.21,WeatherDisplay:10.37,2013-05-11 21:27:00,
2013-05-11 17:32:00,67.7,64.3,29.79,West,265,2.3,2.3,89,0.22,RA,,0.22,WeatherDisplay:10.37,2013-05-11 21:32:00,
2013-05-11 17:37:00,67.5,64.8,29.79,NE,36,0.0,0.0,91,0.22,RA,,0.22,WeatherDisplay:10.37,2013-05-11 21:37:00,
2013-05-11 17:42:00,67.5,64.8,29.78,ESE,102,0.0,0.0,91,0.22,CLR,,0.22,WeatherDisplay:10.37,2013-05-11 21:42:00,
2013-05-11 17:47:00,67.5,65.1,29.78,ESE,102,0.0,0.0,92,0.22,CLR,,0.22,WeatherDisplay:10.37,2013-05-11 21:47:00,
2013-05-11 17:52:00,67.6,65.5,29.78,East,101,0.0,0.0,93,0.22,CLR,,0.22,WeatherDisplay:10.37,2013-05-11 21:52:00,
2013-05-11 17:57:00,67.8,65.7,29.79,ESE,103,0.0,0.0,93,0.22,CLR,,0.22,WeatherDisplay:10.37,2013-05-11 21:57:00,
2013-05-11 18:02:00,68.0,65.9,29.78,ESE,103,0.0,0.0,93,0.22,CLR,,0.22,WeatherDisplay:10.37,2013-05-11 22:02:00,
2013-05-11 18:07:00,68.4,66.3,29.78,North,5,0.0,0.0,93,0.20,CLR,,0.22,WeatherDisplay:10.37,2013-05-11 22:07:00,
2013-05-11 18:12:00,68.6,66.5,29.77,ESE,103,0.0,0.0,93,0.16,CLR,,0.22,WeatherDisplay:10.37,2013-05-11 22:12:00,
2013-05-11 18:17:00,68.8,66.7,29.77,ESE,103,0.0,0.0,93,0.14,CLR,,0.22,WeatherDisplay:10.37,2013-05-11 22:17:00,
2013-05-11 18:22:00,68.9,66.8,29.77,ESE,103,0.0,0.0,93,0.11,CLR,,0.22,WeatherDisplay:10.37,2013-05-11 22:22:00,
2013-05-11 18:27:00,68.9,66.8,29.77,ESE,103,0.0,0.0,93,0.01,CLR,,0.22,WeatherDisplay:10.37,2013-05-11 22:27:00,
2013-05-11 18:32:00,69.1,67.0,29.77,ESE,103,0.0,0.0,93,0.00,CLR,,0.22,WeatherDisplay:10.37,2013-05-11 22:32:00,
2013-05-11 18:37:00,69.2,67.1,29.76,ESE,103,0.0,0.0,93,0.00,CLR,,0.22,WeatherDisplay:10.37,2013-05-11 22:37:00,
2013-05-11 18:42:00,69.3,67.5,29.76,East,100,0.0,0.0,94,0.00,CLR,,0.22,WeatherDisplay:10.37,2013-05-11 22:42:00,
2013-05-11 18:47:00,69.2,67.1,29.76,East,100,0.0,0.0,93,0.00,CLR,,0.22,WeatherDisplay:10.37,2013-05-11 22:47:00,
2013-05-11 18:52:00,69.2,67.4,29.76,East,101,0.0,0.0,94,0.00,CLR,,0.22,WeatherDisplay:10.37,2013-05-11 22:52:00,
2013-05-11 18:57:00,69.5,67.7,29.76,East,101,0.0,0.0,94,0.00,CLR,,0.22,WeatherDisplay:10.37,2013-05-11 22:57:00,
2013-05-11 19:02:00,69.7,67.9,29.76,East,101,0.0,0.0,94,0.00,CLR,,0.22,WeatherDisplay:10.37,2013-05-11 23:02:00,
2013-05-11 19:07:00,69.8,68.0,29.76,ESE,102,0.0,0.0,94,0.00,CLR,,0.22,WeatherDisplay:10.37,2013-05-11 23:07:00,
2013-05-11 19:12:00,69.9,67.5,29.76,West,279,1.1,1.1,92,0.00,CLR,,0.22,WeatherDisplay:10.37,2013-05-11 23:12:00,
2013-05-11 19:17:00,69.9,67.5,29.76,NNW,339,0.0,0.0,92,0.00,CLR,,0.22,WeatherDisplay:10.37,2013-05-11 23:17:00,
2013-05-11 19:22:00,69.9,67.5,29.76,NNW,339,0.0,0.0,92,0.00,CLR,,0.22,WeatherDisplay:10.37,2013-05-11 23:22:00,
2013-05-11 19:27:00,70.0,67.6,29.76,NNW,338,0.0,0.0,92,0.00,CLR,,0.22,WeatherDisplay:10.37,2013-05-11 23:27:00,
2013-05-11 19:32:00,69.9,67.5,29.76,NNW,338,0.0,0.0,92,0.00,CLR,,0.22,WeatherDisplay:10.37,2013-05-11 23:32:00,
2013-05-11 19:37:00,69.7,67.3,29.76,NNW,338,0.0,0.0,92,0.00,CLR,,0.22,WeatherDisplay:10.37,2013-05-11 23:37:00,
2013-05-11 19:42:00,69.4,67.0,29.76,NNW,338,0.0,0.0,92,0.00,CLR,,0.22,WeatherDisplay:10.37,2013-05-11 23:42:00,
2013-05-11 19:47:00,69.1,67.0,29.77,NNW,339,0.0,0.0,93,0.00,CLR,,0.22,WeatherDisplay:10.37,2013-05-11 23:47:00,
2013-05-11 19:52:00,68.8,66.7,29.77,NNW,339,0.0,0.0,93,0.00,CLR,,0.22,WeatherDisplay:10.37,2013-05-11 23:52:00,
2013-05-11 19:57:00,68.6,66.5,29.77,NNW,338,0.0,0.0,93,0.00,CLR,,0.22,WeatherDisplay:10.37,2013-05-11 23:57:00,
2013-05-11 20:02:00,68.4,66.6,29.77,NNW,338,0.0,0.0,94,0.00,CLR,,0.22,WeatherDisplay:10.37,2013-05-12 00:02:00,
2013-05-11 20:07:00,68.2,66.4,29.78,NNW,338,0.0,0.0,94,0.00,CLR,,0.22,WeatherDisplay:10.37,2013-05-12 00:07:00,
2013-05-11 20:12:00,68.1,66.3,29.77,NNW,338,0.0,0.0,94,0.00,CLR,,0.22,WeatherDisplay:10.37,2013-05-12 00:12:00,
2013-05-11 20:17:00,68.0,66.2,29.77,NNW,338,0.0,0.0,94,0.00,CLR,,0.22,WeatherDisplay:10.37,2013-05-12 00:17:00,
2013-05-11 20:22:00,67.8,66.0,29.77,NNW,338,0.0,0.0,94,0.00,CLR,,0.22,WeatherDisplay:10.37,2013-05-12 00:22:00,
2013-05-11 20:27:00,67.6,66.1,29.77,NNW,338,0.0,0.0,95,0.00,CLR,,0.22,WeatherDisplay:10.37,2013-05-12 00:27:00,
2013-05-11 20:32:00,67.5,66.0,29.78,NNW,338,0.0,0.0,95,0.00,CLR,,0.22,WeatherDisplay:10.37,2013-05-12 00:32:00,
2013-05-11 20:37:00,67.4,65.9,29.78,NNW,338,0.0,0.0,95,0.00,CLR,,0.22,WeatherDisplay:10.37,2013-05-12 00:37:00,
2013-05-11 20:43:00,67.3,65.8,29.78,NNW,339,0.0,0.0,95,0.00,CLR,,0.22,WeatherDisplay:10.37,2013-05-12 00:43:00,
2013-05-11 20:48:00,67.1,65.6,29.78,NNW,338,0.0,0.0,95,0.00,CLR,,0.22,WeatherDisplay:10.37,2013-05-12 00:48:00,
2013-05-11 20:53:00,67.0,65.5,29.78,NNW,338,0.0,0.0,95,0.00,CLR,,0.22,WeatherDisplay:10.37,2013-05-12 00:53:00,
2013-05-11 20:58:00,67.0,65.5,29.78,NNW,339,0.0,0.0,95,0.00,CLR,,0.22,WeatherDisplay:10.37,2013-05-12 00:58:00,
2013-05-11 21:03:00,66.9,65.4,29.78,NNW,338,0.0,0.0,95,0.00,CLR,,0.22,WeatherDisplay:10.37,2013-05-12 01:03:00,
2013-05-11 21:08:00,66.8,65.6,29.78,NNW,338,0.0,0.0,96,0.00,CLR,,0.22,WeatherDisplay:10.37,2013-05-12 01:08:00,
2013-05-11 21:13:00,66.7,65.5,29.78,NNW,338,0.0,0.0,96,0.00,CLR,,0.22,WeatherDisplay:10.37,2013-05-12 01:13:00,
2013-05-11 21:18:00,66.6,65.4,29.78,NNW,338,0.0,0.0,96,0.00,CLR,,0.22,WeatherDisplay:10.37,2013-05-12 01:18:00,
2013-05-11 21:23:00,66.6,65.4,29.78,NNW,338,0.0,0.0,96,0.00,CLR,,0.22,WeatherDisplay:10.37,2013-05-12 01:23:00,
2013-05-11 21:28:00,66.6,65.4,29.78,NNW,338,0.0,0.0,96,0.00,CLR,,0.22,WeatherDisplay:10.37,2013-05-12 01:28:00,